createdAt,value
2022-09-15T00:02:21.245Z,16.30
2022-09-15T00:07:28.958Z,16.30
2022-09-15T00:12:36.430Z,16.30
2022-09-15T00:17:43.894Z,16.28
2022-09-15T00:22:51.437Z,16.31
2022-09-15T00:27:58.365Z,16.32
2022-09-15T00:33:05.252Z,16.28
2022-09-15T00:38:13.297Z,16.20
2022-09-15T00:43:22.692Z,16.22
2022-09-15T00:48:29.586Z,16.21
2022-09-15T00:53:37.136Z,16.16
2022-09-15T00:58:49.706Z,16.08
2022-09-15T01:03:57.574Z,16.03
2022-09-15T01:09:10.802Z,16.00
2022-09-15T01:14:18.093Z,15.99
2022-09-15T01:20:01.292Z,16.00
2022-09-15T01:25:22.566Z,16.03
2022-09-15T01:30:33.779Z,16.02
2022-09-15T01:35:52.267Z,16.03
2022-09-15T01:41:06.726Z,16.04
2022-09-15T01:46:15.759Z,16.02
2022-09-15T01:51:25.271Z,15.97
2022-09-15T01:56:32.516Z,15.96
2022-09-15T02:01:45.427Z,15.93
2022-09-15T02:06:59.119Z,15.90
2022-09-15T02:12:14.531Z,15.90
2022-09-15T02:17:22.680Z,15.87
2022-09-15T02:22:34.727Z,15.87
2022-09-15T02:27:45.848Z,15.86
2022-09-15T02:32:57.214Z,15.83
2022-09-15T02:38:09.132Z,15.82
2022-09-15T02:43:18.859Z,15.82
2022-09-15T02:48:26.465Z,15.80
2022-09-15T02:53:35.870Z,15.74
2022-09-15T02:58:42.710Z,15.59
2022-09-15T03:03:50.378Z,15.35
2022-09-15T03:09:00.310Z,15.13
2022-09-15T03:14:08.283Z,14.96
2022-09-15T03:19:15.323Z,14.84
2022-09-15T03:24:23.212Z,14.77
2022-09-15T03:29:30.278Z,14.71
2022-09-15T03:34:37.558Z,14.66
2022-09-15T03:39:44.818Z,14.62
2022-09-15T03:44:51.715Z,14.64
2022-09-15T03:50:00.523Z,14.66
2022-09-15T03:55:08.353Z,14.63
2022-09-15T04:00:17.229Z,14.54
2022-09-15T04:05:24.248Z,14.49
2022-09-15T04:10:31.566Z,14.41
2022-09-15T04:15:39.158Z,14.40
2022-09-15T04:20:46.075Z,14.39
2022-09-15T04:26:00.578Z,14.33
2022-09-15T04:31:09.129Z,14.33
2022-09-15T04:36:18.175Z,14.30
2022-09-15T04:41:25.924Z,14.25
2022-09-15T04:46:33.305Z,14.27
2022-09-15T04:51:40.533Z,14.23
2022-09-15T04:56:47.613Z,14.17
2022-09-15T05:01:56.367Z,14.09
2022-09-15T05:07:03.388Z,14.03
2022-09-15T05:12:10.499Z,13.96
2022-09-15T05:17:17.246Z,13.94
2022-09-15T05:22:24.143Z,13.92
2022-09-15T05:27:33.956Z,13.92
2022-09-15T05:32:40.942Z,13.96
2022-09-15T05:37:48.108Z,14.01
2022-09-15T05:42:54.969Z,14.05
2022-09-15T05:48:01.832Z,14.07
2022-09-15T05:53:09.195Z,14.11
2022-09-15T05:58:16.690Z,14.14
2022-09-15T06:03:30.087Z,14.19
2022-09-15T06:08:43.770Z,14.26
2022-09-15T06:13:51.626Z,14.38
2022-09-15T06:18:59.927Z,14.54
2022-09-15T06:24:07.984Z,14.63
2022-09-15T06:29:15.182Z,14.69
2022-09-15T06:34:22.344Z,14.71
2022-09-15T06:39:29.656Z,14.70
2022-09-15T06:44:37.039Z,14.80
2022-09-15T06:49:43.974Z,14.95
2022-09-15T06:54:51.082Z,15.12
2022-09-15T06:59:58.129Z,15.20
2022-09-15T07:05:05.393Z,15.13
2022-09-15T07:10:12.742Z,15.16
2022-09-15T07:15:19.741Z,15.15
2022-09-15T07:20:27.493Z,15.18
2022-09-15T07:25:34.536Z,15.27
2022-09-15T07:30:42.245Z,15.31
2022-09-15T07:35:49.428Z,15.45
2022-09-15T07:40:56.483Z,15.55
2022-09-15T07:46:04.268Z,15.67
2022-09-15T07:51:11.396Z,15.66
2022-09-15T07:56:19.804Z,15.71
2022-09-15T08:01:27.052Z,15.80
2022-09-15T08:06:34.342Z,15.91
2022-09-15T08:11:42.090Z,16.17
2022-09-15T08:16:49.157Z,16.21
2022-09-15T08:21:56.150Z,16.27
2022-09-15T08:27:03.208Z,16.34
2022-09-15T08:32:10.454Z,16.35
2022-09-15T08:37:17.482Z,16.44
2022-09-15T08:42:27.078Z,16.76
2022-09-15T08:47:37.283Z,16.94
2022-09-15T08:52:47.159Z,17.08
2022-09-15T08:57:59.145Z,17.13
2022-09-15T09:03:30.986Z,17.39
2022-09-15T09:09:08.537Z,17.60
2022-09-15T09:14:24.892Z,17.74
2022-09-15T09:19:57.757Z,17.80
2022-09-15T09:25:25.743Z,17.95
2022-09-15T09:30:36.444Z,18.12
2022-09-15T09:35:46.435Z,18.33
2022-09-15T09:40:55.742Z,18.51
2022-09-15T09:46:11.161Z,18.67
2022-09-15T09:51:38.463Z,18.66
2022-09-15T09:56:46.405Z,18.63
2022-09-15T10:07:33.340Z,18.77
2022-09-15T10:12:43.296Z,18.97
2022-09-15T10:17:53.031Z,19.17
2022-09-15T10:23:24.328Z,19.27
2022-09-15T10:28:31.558Z,19.25
2022-09-15T10:33:40.499Z,19.15
2022-09-15T10:38:50.142Z,18.82
2022-09-15T10:44:26.604Z,18.61
2022-09-15T10:49:49.831Z,18.52
2022-09-15T10:55:24.604Z,18.53
2022-09-15T11:00:46.805Z,18.42
2022-09-15T11:06:10.814Z,18.47
2022-09-15T11:11:30.686Z,18.55
2022-09-15T11:16:51.245Z,18.72
2022-09-15T11:21:58.777Z,18.95
2022-09-15T11:27:13.148Z,19.07
2022-09-15T11:32:25.635Z,19.31
2022-09-15T11:37:40.399Z,19.41
2022-09-15T11:42:54.173Z,19.44
2022-09-15T11:48:06.027Z,19.40
2022-09-15T11:53:20.818Z,19.42
2022-09-15T11:58:35.466Z,19.68
2022-09-15T12:03:48.363Z,19.86
2022-09-15T12:08:58.528Z,19.96
2022-09-15T12:14:05.314Z,20.36
2022-09-15T12:19:19.828Z,20.54
2022-09-15T12:24:34.358Z,20.70
2022-09-15T12:29:49.107Z,20.35
2022-09-15T12:35:30.531Z,20.13
2022-09-15T12:40:39.905Z,19.90
2022-09-15T12:45:58.328Z,19.83
2022-09-15T12:51:10.643Z,19.62
2022-09-15T12:56:27.609Z,19.41
2022-09-15T13:01:49.622Z,19.31
2022-09-15T13:07:36.757Z,19.23
2022-09-15T13:12:50.778Z,19.31
2022-09-15T13:17:59.337Z,19.25
2022-09-15T13:23:10.384Z,19.21
2022-09-15T13:28:18.984Z,19.31
2022-09-15T13:39:45.854Z,19.84
2022-09-15T13:45:40.250Z,20.04
2022-09-15T13:50:56.657Z,19.94
2022-09-15T13:56:08.376Z,19.63
2022-09-15T14:01:17.255Z,19.35
2022-09-15T14:06:27.231Z,19.05
2022-09-15T14:11:36.617Z,18.85
2022-09-15T14:16:52.079Z,18.66
2022-09-15T14:21:59.505Z,18.44
2022-09-15T14:27:12.768Z,18.25
2022-09-15T14:32:20.360Z,18.17
2022-09-15T14:37:32.087Z,18.09
2022-09-15T14:42:43.003Z,18.11
2022-09-15T14:47:58.911Z,18.33
2022-09-15T14:53:08.109Z,19.00
2022-09-15T14:58:21.515Z,19.11
2022-09-15T15:03:42.333Z,19.05
2022-09-15T15:08:55.227Z,19.11
2022-09-15T15:14:03.260Z,19.32
2022-09-15T15:19:33.594Z,19.18
2022-09-15T15:24:44.561Z,19.10
2022-09-15T15:29:51.884Z,19.64
2022-09-15T15:35:04.088Z,19.86
2022-09-15T15:40:18.501Z,20.06
2022-09-15T15:45:27.436Z,19.89
2022-09-15T15:50:36.916Z,19.66
2022-09-15T15:55:44.451Z,19.22
2022-09-15T16:00:53.236Z,18.73
2022-09-15T16:06:03.073Z,18.45
2022-09-15T16:11:12.760Z,18.58
2022-09-15T16:16:21.741Z,18.44
2022-09-15T16:21:37.073Z,18.11
2022-09-15T16:26:44.550Z,17.82
2022-09-15T16:31:52.862Z,17.58
2022-09-15T16:36:59.885Z,17.41
2022-09-15T16:42:07.427Z,17.27
2022-09-15T16:47:14.149Z,17.15
2022-09-15T16:52:21.004Z,17.05
2022-09-15T16:57:27.844Z,16.92
2022-09-15T17:02:34.804Z,16.83
2022-09-15T17:07:41.690Z,16.76
2022-09-15T17:12:48.541Z,16.61
2022-09-15T17:17:55.817Z,16.48
2022-09-15T17:23:14.592Z,16.34
2022-09-15T17:28:23.396Z,16.17
2022-09-15T17:33:32.070Z,16.05
2022-09-15T17:38:49.235Z,15.90
2022-09-15T17:44:06.593Z,15.77
2022-09-15T17:49:13.824Z,15.63
2022-09-15T17:54:20.764Z,15.51
2022-09-15T17:59:28.530Z,15.43
2022-09-15T18:04:35.562Z,15.35
2022-09-15T18:09:42.841Z,15.30
2022-09-15T18:14:50.158Z,15.25
2022-09-15T18:19:57.139Z,15.14
2022-09-15T18:25:04.535Z,15.09
2022-09-15T18:30:14.489Z,15.00
2022-09-15T18:35:22.588Z,14.93
2022-09-15T18:40:30.789Z,14.86
2022-09-15T18:45:38.316Z,14.80
2022-09-15T18:50:47.086Z,14.74
2022-09-15T18:55:54.085Z,14.67
2022-09-15T19:01:02.897Z,14.63
2022-09-15T19:06:10.712Z,14.57
2022-09-15T19:11:17.749Z,14.49
2022-09-15T19:16:34.695Z,14.39
2022-09-15T19:21:47.386Z,14.28
2022-09-15T19:26:54.226Z,14.14
2022-09-15T19:32:01.046Z,14.02
2022-09-15T19:37:13.065Z,13.93
2022-09-15T19:42:22.145Z,13.83
2022-09-15T19:47:29.017Z,13.72
2022-09-15T19:52:36.129Z,13.62
2022-09-15T19:57:43.760Z,13.52
2022-09-15T20:02:51.194Z,13.40
2022-09-15T20:08:00.695Z,13.29
2022-09-15T20:13:07.589Z,13.21
2022-09-15T20:18:15.499Z,13.13
2022-09-15T20:23:22.609Z,13.04
2022-09-15T20:28:31.490Z,12.96
2022-09-15T20:33:41.084Z,12.89
2022-09-15T20:38:48.757Z,12.83
2022-09-15T20:43:56.148Z,12.82
2022-09-15T20:49:03.271Z,12.85
2022-09-15T20:54:11.404Z,12.87
2022-09-15T20:59:18.562Z,12.89
2022-09-15T21:04:25.440Z,12.88
2022-09-15T21:09:32.317Z,12.88
2022-09-15T21:14:39.340Z,12.87
2022-09-15T21:19:46.259Z,12.82
2022-09-15T21:24:53.033Z,12.74
2022-09-15T21:30:00.030Z,12.66
2022-09-15T21:35:07.570Z,12.58
2022-09-15T21:40:14.683Z,12.49
2022-09-15T21:45:21.809Z,12.40
2022-09-15T21:50:29.729Z,12.30
2022-09-15T21:55:40.231Z,12.20
2022-09-15T22:00:47.459Z,12.10
2022-09-15T22:05:54.438Z,12.02
2022-09-15T22:11:03.911Z,11.96
2022-09-15T22:16:13.445Z,11.89
2022-09-15T22:21:22.784Z,11.82
2022-09-15T22:26:31.220Z,11.77
2022-09-15T22:31:38.867Z,11.72
2022-09-15T22:36:45.758Z,11.69
2022-09-15T22:41:52.884Z,11.68
2022-09-15T22:47:00.144Z,11.69
2022-09-15T22:52:07.132Z,11.73
2022-09-15T22:57:14.098Z,11.79
2022-09-15T23:02:20.973Z,11.84
2022-09-15T23:07:28.144Z,11.90
2022-09-15T23:12:35.895Z,11.99
2022-09-15T23:17:42.800Z,12.16
2022-09-15T23:22:49.583Z,12.31
2022-09-15T23:27:56.504Z,12.42
2022-09-15T23:33:03.423Z,12.50
2022-09-15T23:38:10.265Z,12.54
2022-09-15T23:43:17.992Z,12.57
2022-09-15T23:48:24.904Z,12.61
2022-09-15T23:53:32.281Z,12.63
2022-09-15T23:58:39.772Z,12.63
